sensor_id;sensor_type;location;lat;lon;timestamp;P1;durP1;ratioP1;P2;durP2;ratioP2
74383;SDS011;62824;52.994;-3.936;2024-01-30T00:00:25;0.35;;;0.17;;
74383;SDS011;62824;52.994;-3.936;2024-01-30T00:02:51;0.28;;;0.28;;
74383;SDS011;62824;52.994;-3.936;2024-01-30T00:05:17;2.95;;;1.20;;
74383;SDS011;62824;52.994;-3.936;2024-01-30T00:07:43;1.65;;;0.80;;
74383;SDS011;62824;52.994;-3.936;2024-01-30T00:10:10;0.45;;;0.20;;
74383;SDS011;62824;52.994;-3.936;2024-01-30T00:12:35;0.63;;;0.30;;
74383;SDS011;62824;52.994;-3.936;2024-01-30T00:15:08;0.20;;;0.20;;
74383;SDS011;62824;52.994;-3.936;2024-01-30T00:17:37;0.55;;;0.22;;
74383;SDS011;62824;52.994;-3.936;2024-01-30T00:20:03;0.45;;;0.30;;
74383;SDS011;62824;52.994;-3.936;2024-01-30T00:22:34;0.08;;;0.08;;
74383;SDS011;62824;52.994;-3.936;2024-01-30T00:25:00;0.10;;;0.10;;
74383;SDS011;62824;52.994;-3.936;2024-01-30T00:27:26;0.40;;;0.30;;
74383;SDS011;62824;52.994;-3.936;2024-01-30T00:29:53;3.83;;;1.13;;
74383;SDS011;62824;52.994;-3.936;2024-01-30T00:32:21;2.30;;;0.43;;
74383;SDS011;62824;52.994;-3.936;2024-01-30T00:34:48;0.35;;;0.20;;
74383;SDS011;62824;52.994;-3.936;2024-01-30T00:37:14;1.60;;;0.57;;
74383;SDS011;62824;52.994;-3.936;2024-01-30T00:39:40;4.70;;;1.52;;
74383;SDS011;62824;52.994;-3.936;2024-01-30T00:42:07;3.95;;;1.27;;
74383;SDS011;62824;52.994;-3.936;2024-01-30T00:44:34;1.52;;;0.75;;
74383;SDS011;62824;52.994;-3.936;2024-01-30T00:47:04;0.22;;;0.20;;
74383;SDS011;62824;52.994;-3.936;2024-01-30T00:49:30;0.10;;;0.10;;
74383;SDS011;62824;52.994;-3.936;2024-01-30T00:51:59;2.65;;;0.85;;
74383;SDS011;62824;52.994;-3.936;2024-01-30T00:54:25;3.13;;;1.55;;
74383;SDS011;62824;52.994;-3.936;2024-01-30T00:56:52;3.90;;;1.50;;
74383;SDS011;62824;52.994;-3.936;2024-01-30T00:59:18;0.73;;;0.20;;
74383;SDS011;62824;52.994;-3.936;2024-01-30T01:01:44;0.32;;;0.30;;
74383;SDS011;62824;52.994;-3.936;2024-01-30T01:04:10;1.65;;;0.30;;
74383;SDS011;62824;52.994;-3.936;2024-01-30T01:06:36;0.85;;;0.60;;
74383;SDS011;62824;52.994;-3.936;2024-01-30T01:09:02;0.68;;;0.50;;
74383;SDS011;62824;52.994;-3.936;2024-01-30T01:11:28;1.88;;;0.30;;
74383;SDS011;62824;52.994;-3.936;2024-01-30T01:13:54;1.45;;;0.68;;
74383;SDS011;62824;52.994;-3.936;2024-01-30T01:16:20;0.90;;;0.55;;
74383;SDS011;62824;52.994;-3.936;2024-01-30T01:18:46;0.55;;;0.20;;
74383;SDS011;62824;52.994;-3.936;2024-01-30T01:21:13;2.83;;;1.10;;
74383;SDS011;62824;52.994;-3.936;2024-01-30T01:23:41;3.08;;;0.95;;
74383;SDS011;62824;52.994;-3.936;2024-01-30T01:26:07;1.65;;;0.60;;
74383;SDS011;62824;52.994;-3.936;2024-01-30T01:28:35;2.97;;;0.70;;
74383;SDS011;62824;52.994;-3.936;2024-01-30T01:31:00;2.45;;;1.02;;
74383;SDS011;62824;52.994;-3.936;2024-01-30T01:33:33;1.20;;;0.63;;
74383;SDS011;62824;52.994;-3.936;2024-01-30T01:36:01;8.00;;;2.92;;
74383;SDS011;62824;52.994;-3.936;2024-01-30T01:38:27;5.55;;;2.25;;
74383;SDS011;62824;52.994;-3.936;2024-01-30T01:40:54;3.85;;;1.52;;
74383;SDS011;62824;52.994;-3.936;2024-01-30T01:43:19;2.35;;;1.23;;
74383;SDS011;62824;52.994;-3.936;2024-01-30T01:45:45;1.05;;;0.40;;
74383;SDS011;62824;52.994;-3.936;2024-01-30T01:48:11;0.45;;;0.32;;
74383;SDS011;62824;52.994;-3.936;2024-01-30T01:50:38;1.38;;;0.30;;
74383;SDS011;62824;52.994;-3.936;2024-01-30T01:53:05;1.05;;;0.20;;
74383;SDS011;62824;52.994;-3.936;2024-01-30T01:55:33;0.57;;;0.30;;
74383;SDS011;62824;52.994;-3.936;2024-01-30T01:58:00;0.30;;;0.30;;
74383;SDS011;62824;52.994;-3.936;2024-01-30T02:00:27;0.30;;;0.30;;
74383;SDS011;62824;52.994;-3.936;2024-01-30T02:02:56;0.63;;;0.35;;
74383;SDS011;62824;52.994;-3.936;2024-01-30T02:05:23;0.10;;;0.10;;
74383;SDS011;62824;52.994;-3.936;2024-01-30T02:07:50;0.10;;;0.10;;
74383;SDS011;62824;52.994;-3.936;2024-01-30T02:10:16;2.08;;;0.20;;
74383;SDS011;62824;52.994;-3.936;2024-01-30T02:12:42;1.45;;;0.30;;
74383;SDS011;62824;52.994;-3.936;2024-01-30T02:15:08;0.20;;;0.20;;
74383;SDS011;62824;52.994;-3.936;2024-01-30T02:17:39;0.20;;;0.20;;
74383;SDS011;62824;52.994;-3.936;2024-01-30T02:20:04;1.88;;;0.50;;
74383;SDS011;62824;52.994;-3.936;2024-01-30T02:22:31;1.27;;;0.38;;
74383;SDS011;62824;52.994;-3.936;2024-01-30T02:24:59;0.17;;;0.17;;
74383;SDS011;62824;52.994;-3.936;2024-01-30T02:27:25;0.20;;;0.20;;
74383;SDS011;62824;52.994;-3.936;2024-01-30T02:29:51;0.20;;;0.13;;
74383;SDS011;62824;52.994;-3.936;2024-01-30T02:32:17;0.20;;;0.20;;
74383;SDS011;62824;52.994;-3.936;2024-01-30T02:34:43;0.10;;;0.10;;
74383;SDS011;62824;52.994;-3.936;2024-01-30T02:37:09;0.10;;;0.05;;
74383;SDS011;62824;52.994;-3.936;2024-01-30T02:39:35;0.10;;;0.10;;
74383;SDS011;62824;52.994;-3.936;2024-01-30T02:42:01;1.13;;;0.00;;
74383;SDS011;62824;52.994;-3.936;2024-01-30T02:44:27;0.00;;;0.00;;
74383;SDS011;62824;52.994;-3.936;2024-01-30T02:46:53;0.00;;;0.00;;
74383;SDS011;62824;52.994;-3.936;2024-01-30T02:49:20;0.10;;;0.10;;
74383;SDS011;62824;52.994;-3.936;2024-01-30T02:51:47;0.10;;;0.10;;
74383;SDS011;62824;52.994;-3.936;2024-01-30T02:54:12;0.10;;;0.10;;
74383;SDS011;62824;52.994;-3.936;2024-01-30T02:56:38;0.10;;;0.10;;
74383;SDS011;62824;52.994;-3.936;2024-01-30T02:59:04;0.43;;;0.35;;
74383;SDS011;62824;52.994;-3.936;2024-01-30T03:01:30;0.20;;;0.20;;
74383;SDS011;62824;52.994;-3.936;2024-01-30T03:03:57;0.13;;;0.13;;
74383;SDS011;62824;52.994;-3.936;2024-01-30T03:06:22;0.30;;;0.28;;
74383;SDS011;62824;52.994;-3.936;2024-01-30T03:08:49;0.30;;;0.20;;
74383;SDS011;62824;52.994;-3.936;2024-01-30T03:11:15;0.30;;;0.30;;
74383;SDS011;62824;52.994;-3.936;2024-01-30T03:13:41;0.30;;;0.30;;
74383;SDS011;62824;52.994;-3.936;2024-01-30T03:16:08;0.20;;;0.20;;
74383;SDS011;62824;52.994;-3.936;2024-01-30T03:18:33;0.30;;;0.25;;
74383;SDS011;62824;52.994;-3.936;2024-01-30T03:20:59;2.00;;;0.40;;
74383;SDS011;62824;52.994;-3.936;2024-01-30T03:23:26;0.20;;;0.17;;
74383;SDS011;62824;52.994;-3.936;2024-01-30T03:25:52;0.50;;;0.20;;
74383;SDS011;62824;52.994;-3.936;2024-01-30T03:28:17;2.38;;;0.40;;
74383;SDS011;62824;52.994;-3.936;2024-01-30T03:30:43;0.20;;;0.20;;
74383;SDS011;62824;52.994;-3.936;2024-01-30T03:33:09;1.23;;;0.22;;
74383;SDS011;62824;52.994;-3.936;2024-01-30T03:35:36;1.45;;;0.30;;
74383;SDS011;62824;52.994;-3.936;2024-01-30T03:38:02;0.28;;;0.10;;
74383;SDS011;62824;52.994;-3.936;2024-01-30T03:40:28;0.38;;;0.25;;
74383;SDS011;62824;52.994;-3.936;2024-01-30T03:42:54;0.20;;;0.20;;
74383;SDS011;62824;52.994;-3.936;2024-01-30T03:45:20;0.52;;;0.40;;
74383;SDS011;62824;52.994;-3.936;2024-01-30T03:47:46;0.88;;;0.40;;
74383;SDS011;62824;52.994;-3.936;2024-01-30T03:50:12;1.23;;;0.30;;
74383;SDS011;62824;52.994;-3.936;2024-01-30T03:52:41;0.35;;;0.30;;
74383;SDS011;62824;52.994;-3.936;2024-01-30T03:55:07;0.55;;;0.40;;
74383;SDS011;62824;52.994;-3.936;2024-01-30T03:57:33;0.80;;;0.70;;
74383;SDS011;62824;52.994;-3.936;2024-01-30T03:59:59;0.70;;;0.25;;
74383;SDS011;62824;52.994;-3.936;2024-01-30T04:02:25;0.40;;;0.28;;
74383;SDS011;62824;52.994;-3.936;2024-01-30T04:04:51;1.15;;;0.50;;
74383;SDS011;62824;52.994;-3.936;2024-01-30T04:07:17;0.52;;;0.30;;
74383;SDS011;62824;52.994;-3.936;2024-01-30T04:09:46;0.43;;;0.30;;
74383;SDS011;62824;52.994;-3.936;2024-01-30T04:12:12;0.50;;;0.30;;
74383;SDS011;62824;52.994;-3.936;2024-01-30T04:14:42;0.80;;;0.40;;
74383;SDS011;62824;52.994;-3.936;2024-01-30T04:17:09;1.65;;;0.30;;
74383;SDS011;62824;52.994;-3.936;2024-01-30T04:19:37;0.30;;;0.20;;
74383;SDS011;62824;52.994;-3.936;2024-01-30T04:22:04;1.58;;;0.50;;
74383;SDS011;62824;52.994;-3.936;2024-01-30T04:24:30;1.58;;;0.45;;
74383;SDS011;62824;52.994;-3.936;2024-01-30T04:26:57;0.52;;;0.52;;
74383;SDS011;62824;52.994;-3.936;2024-01-30T04:29:23;2.63;;;1.38;;
74383;SDS011;62824;52.994;-3.936;2024-01-30T04:31:52;1.75;;;0.35;;
74383;SDS011;62824;52.994;-3.936;2024-01-30T04:34:18;1.95;;;0.60;;
74383;SDS011;62824;52.994;-3.936;2024-01-30T04:36:47;0.60;;;0.50;;
74383;SDS011;62824;52.994;-3.936;2024-01-30T04:39:14;0.77;;;0.35;;
74383;SDS011;62824;52.994;-3.936;2024-01-30T04:41:43;0.40;;;0.22;;
74383;SDS011;62824;52.994;-3.936;2024-01-30T04:44:09;1.65;;;0.32;;
74383;SDS011;62824;52.994;-3.936;2024-01-30T04:46:36;0.40;;;0.38;;
74383;SDS011;62824;52.994;-3.936;2024-01-30T04:49:02;0.70;;;0.50;;
74383;SDS011;62824;52.994;-3.936;2024-01-30T04:51:28;0.43;;;0.40;;
74383;SDS011;62824;52.994;-3.936;2024-01-30T04:53:55;1.35;;;0.32;;
74383;SDS011;62824;52.994;-3.936;2024-01-30T04:56:21;0.82;;;0.40;;
74383;SDS011;62824;52.994;-3.936;2024-01-30T04:58:47;0.77;;;0.40;;
74383;SDS011;62824;52.994;-3.936;2024-01-30T05:01:16;0.93;;;0.40;;
74383;SDS011;62824;52.994;-3.936;2024-01-30T05:03:42;2.95;;;0.40;;
74383;SDS011;62824;52.994;-3.936;2024-01-30T05:06:08;0.95;;;0.30;;
74383;SDS011;62824;52.994;-3.936;2024-01-30T05:08:34;0.52;;;0.50;;
74383;SDS011;62824;52.994;-3.936;2024-01-30T05:11:05;0.73;;;0.50;;
74383;SDS011;62824;52.994;-3.936;2024-01-30T05:13:32;1.00;;;0.50;;
74383;SDS011;62824;52.994;-3.936;2024-01-30T05:15:58;0.50;;;0.40;;
74383;SDS011;62824;52.994;-3.936;2024-01-30T05:18:24;0.73;;;0.50;;
74383;SDS011;62824;52.994;-3.936;2024-01-30T05:20:50;0.40;;;0.40;;
74383;SDS011;62824;52.994;-3.936;2024-01-30T05:23:16;0.73;;;0.50;;
74383;SDS011;62824;52.994;-3.936;2024-01-30T05:25:48;2.90;;;0.70;;
74383;SDS011;62824;52.994;-3.936;2024-01-30T05:28:14;1.70;;;0.47;;
74383;SDS011;62824;52.994;-3.936;2024-01-30T05:30:40;0.50;;;0.30;;
74383;SDS011;62824;52.994;-3.936;2024-01-30T05:33:06;1.88;;;0.60;;
74383;SDS011;62824;52.994;-3.936;2024-01-30T05:35:32;0.88;;;0.50;;
74383;SDS011;62824;52.994;-3.936;2024-01-30T05:37:58;1.50;;;0.30;;
74383;SDS011;62824;52.994;-3.936;2024-01-30T05:40:26;0.70;;;0.40;;
74383;SDS011;62824;52.994;-3.936;2024-01-30T05:42:52;0.30;;;0.30;;
74383;SDS011;62824;52.994;-3.936;2024-01-30T05:45:29;0.60;;;0.32;;
74383;SDS011;62824;52.994;-3.936;2024-01-30T07:14:13;0.55;;;0.32;;
74383;SDS011;62824;52.994;-3.936;2024-01-30T07:16:40;0.43;;;0.43;;
74383;SDS011;62824;52.994;-3.936;2024-01-30T07:19:05;2.42;;;0.60;;
74383;SDS011;62824;52.994;-3.936;2024-01-30T07:21:34;1.23;;;0.65;;
74383;SDS011;62824;52.994;-3.936;2024-01-30T07:24:00;2.08;;;0.57;;
74383;SDS011;62824;52.994;-3.936;2024-01-30T07:26:26;1.15;;;1.05;;
74383;SDS011;62824;52.994;-3.936;2024-01-30T07:28:52;0.57;;;0.50;;
74383;SDS011;62824;52.994;-3.936;2024-01-30T07:31:22;1.73;;;0.50;;
74383;SDS011;62824;52.994;-3.936;2024-01-30T07:33:48;1.88;;;0.50;;
74383;SDS011;62824;52.994;-3.936;2024-01-30T07:36:22;0.63;;;0.60;;
74383;SDS011;62824;52.994;-3.936;2024-01-30T07:38:48;0.98;;;0.60;;
74383;SDS011;62824;52.994;-3.936;2024-01-30T07:41:14;1.92;;;0.80;;
74383;SDS011;62824;52.994;-3.936;2024-01-30T07:43:50;4.47;;;0.70;;
74383;SDS011;62824;52.994;-3.936;2024-01-30T07:46:17;0.50;;;0.50;;
74383;SDS011;62824;52.994;-3.936;2024-01-30T07:48:43;0.77;;;0.60;;
74383;SDS011;62824;52.994;-3.936;2024-01-30T07:51:09;1.23;;;0.68;;
74383;SDS011;62824;52.994;-3.936;2024-01-30T07:53:35;2.78;;;0.80;;
74383;SDS011;62824;52.994;-3.936;2024-01-30T07:56:01;0.60;;;0.60;;
74383;SDS011;62824;52.994;-3.936;2024-01-30T07:58:27;3.05;;;0.70;;
74383;SDS011;62824;52.994;-3.936;2024-01-30T08:00:53;0.98;;;0.73;;
74383;SDS011;62824;52.994;-3.936;2024-01-30T08:03:22;2.33;;;1.60;;
74383;SDS011;62824;52.994;-3.936;2024-01-30T08:05:48;1.55;;;0.90;;
74383;SDS011;62824;52.994;-3.936;2024-01-30T08:08:14;0.95;;;0.70;;
74383;SDS011;62824;52.994;-3.936;2024-01-30T08:10:40;2.83;;;0.77;;
74383;SDS011;62824;52.994;-3.936;2024-01-30T08:13:06;1.05;;;0.70;;
74383;SDS011;62824;52.994;-3.936;2024-01-30T08:15:34;0.70;;;0.70;;
74383;SDS011;62824;52.994;-3.936;2024-01-30T08:18:00;3.50;;;1.00;;
74383;SDS011;62824;52.994;-3.936;2024-01-30T08:20:35;1.73;;;0.90;;
74383;SDS011;62824;52.994;-3.936;2024-01-30T08:23:01;1.10;;;0.73;;
74383;SDS011;62824;52.994;-3.936;2024-01-30T08:25:32;1.00;;;0.70;;
74383;SDS011;62824;52.994;-3.936;2024-01-30T08:27:58;2.03;;;1.08;;
74383;SDS011;62824;52.994;-3.936;2024-01-30T08:30:25;2.05;;;0.88;;
74383;SDS011;62824;52.994;-3.936;2024-01-30T08:32:51;0.88;;;0.60;;
74383;SDS011;62824;52.994;-3.936;2024-01-30T08:35:17;1.27;;;0.80;;
74383;SDS011;62824;52.994;-3.936;2024-01-30T08:37:43;1.60;;;0.70;;
74383;SDS011;62824;52.994;-3.936;2024-01-30T08:40:09;1.42;;;0.90;;
74383;SDS011;62824;52.994;-3.936;2024-01-30T08:42:35;1.13;;;0.70;;
74383;SDS011;62824;52.994;-3.936;2024-01-30T08:45:02;0.98;;;0.60;;
74383;SDS011;62824;52.994;-3.936;2024-01-30T08:47:30;0.93;;;0.70;;
74383;SDS011;62824;52.994;-3.936;2024-01-30T08:49:56;2.33;;;1.10;;
74383;SDS011;62824;52.994;-3.936;2024-01-30T08:52:22;3.17;;;0.70;;
74383;SDS011;62824;52.994;-3.936;2024-01-30T08:54:48;0.60;;;0.50;;
74383;SDS011;62824;52.994;-3.936;2024-01-30T08:57:14;2.30;;;1.10;;
74383;SDS011;62824;52.994;-3.936;2024-01-30T08:59:43;1.95;;;0.75;;
74383;SDS011;62824;52.994;-3.936;2024-01-30T09:02:10;1.55;;;1.05;;
74383;SDS011;62824;52.994;-3.936;2024-01-30T09:04:38;1.35;;;0.80;;
74383;SDS011;62824;52.994;-3.936;2024-01-30T09:07:04;3.13;;;0.65;;
74383;SDS011;62824;52.994;-3.936;2024-01-30T09:09:33;2.28;;;0.77;;
74383;SDS011;62824;52.994;-3.936;2024-01-30T09:11:59;5.13;;;0.80;;
74383;SDS011;62824;52.994;-3.936;2024-01-30T09:14:32;1.60;;;0.88;;
74383;SDS011;62824;52.994;-3.936;2024-01-30T09:16:58;1.48;;;1.25;;
74383;SDS011;62824;52.994;-3.936;2024-01-30T09:19:28;0.82;;;0.50;;
74383;SDS011;62824;52.994;-3.936;2024-01-30T09:21:54;2.50;;;0.60;;
74383;SDS011;62824;52.994;-3.936;2024-01-30T09:24:26;1.75;;;1.00;;
74383;SDS011;62824;52.994;-3.936;2024-01-30T09:26:52;5.28;;;0.90;;
74383;SDS011;62824;52.994;-3.936;2024-01-30T09:29:18;1.83;;;0.93;;
74383;SDS011;62824;52.994;-3.936;2024-01-30T09:31:45;1.10;;;0.75;;
74383;SDS011;62824;52.994;-3.936;2024-01-30T09:34:11;4.22;;;1.02;;
74383;SDS011;62824;52.994;-3.936;2024-01-30T09:36:37;1.48;;;1.00;;
74383;SDS011;62824;52.994;-3.936;2024-01-30T09:39:03;0.90;;;0.80;;
74383;SDS011;62824;52.994;-3.936;2024-01-30T09:41:31;2.53;;;0.82;;
74383;SDS011;62824;52.994;-3.936;2024-01-30T09:43:58;4.65;;;1.48;;
74383;SDS011;62824;52.994;-3.936;2024-01-30T09:46:28;2.30;;;0.73;;
74383;SDS011;62824;52.994;-3.936;2024-01-30T09:48:57;1.90;;;0.75;;
74383;SDS011;62824;52.994;-3.936;2024-01-30T09:51:24;1.45;;;0.85;;
74383;SDS011;62824;52.994;-3.936;2024-01-30T09:53:50;3.08;;;1.17;;
74383;SDS011;62824;52.994;-3.936;2024-01-30T09:56:19;3.47;;;0.90;;
74383;SDS011;62824;52.994;-3.936;2024-01-30T09:58:52;3.20;;;0.75;;
74383;SDS011;62824;52.994;-3.936;2024-01-30T10:01:21;2.53;;;1.00;;
74383;SDS011;62824;52.994;-3.936;2024-01-30T10:03:51;3.22;;;1.00;;
74383;SDS011;62824;52.994;-3.936;2024-01-30T10:06:24;3.65;;;0.77;;
74383;SDS011;62824;52.994;-3.936;2024-01-30T10:08:50;2.35;;;0.73;;
74383;SDS011;62824;52.994;-3.936;2024-01-30T10:11:41;2.70;;;1.00;;
74383;SDS011;62824;52.994;-3.936;2024-01-30T10:40:08;5.40;;;1.13;;
74383;SDS011;62824;52.994;-3.936;2024-01-30T10:42:44;5.75;;;1.42;;
74383;SDS011;62824;52.994;-3.936;2024-01-30T10:45:13;3.60;;;0.77;;
74383;SDS011;62824;52.994;-3.936;2024-01-30T10:50:54;4.57;;;0.93;;
74383;SDS011;62824;52.994;-3.936;2024-01-30T10:53:25;5.10;;;1.20;;
74383;SDS011;62824;52.994;-3.936;2024-01-30T10:55:52;6.60;;;1.73;;
74383;SDS011;62824;52.994;-3.936;2024-01-30T10:58:20;4.43;;;1.00;;
74383;SDS011;62824;52.994;-3.936;2024-01-30T11:00:47;3.88;;;1.25;;
74383;SDS011;62824;52.994;-3.936;2024-01-30T11:03:15;5.18;;;1.15;;
74383;SDS011;62824;52.994;-3.936;2024-01-30T11:05:42;2.42;;;0.90;;
74383;SDS011;62824;52.994;-3.936;2024-01-30T11:08:12;2.28;;;1.25;;
74383;SDS011;62824;52.994;-3.936;2024-01-30T11:10:47;3.75;;;1.00;;
74383;SDS011;62824;52.994;-3.936;2024-01-30T11:13:14;7.22;;;1.88;;
74383;SDS011;62824;52.994;-3.936;2024-01-30T11:16:04;3.28;;;0.90;;
74383;SDS011;62824;52.994;-3.936;2024-01-30T11:18:30;3.92;;;1.25;;
74383;SDS011;62824;52.994;-3.936;2024-01-30T11:24:40;4.57;;;1.23;;
74383;SDS011;62824;52.994;-3.936;2024-01-30T11:27:10;6.23;;;2.37;;
74383;SDS011;62824;52.994;-3.936;2024-01-30T11:29:37;7.40;;;3.25;;
74383;SDS011;62824;52.994;-3.936;2024-01-30T11:32:06;8.73;;;3.28;;
74383;SDS011;62824;52.994;-3.936;2024-01-30T11:34:54;13.73;;;6.38;;
74383;SDS011;62824;52.994;-3.936;2024-01-30T11:37:20;8.85;;;3.38;;
74383;SDS011;62824;52.994;-3.936;2024-01-30T11:39:50;4.25;;;1.60;;
74383;SDS011;62824;52.994;-3.936;2024-01-30T11:42:16;5.18;;;1.33;;
74383;SDS011;62824;52.994;-3.936;2024-01-30T11:44:47;3.38;;;0.98;;
74383;SDS011;62824;52.994;-3.936;2024-01-30T11:47:19;5.75;;;1.50;;
74383;SDS011;62824;52.994;-3.936;2024-01-30T11:49:57;3.78;;;1.40;;
74383;SDS011;62824;52.994;-3.936;2024-01-30T11:52:45;3.88;;;1.15;;
74383;SDS011;62824;52.994;-3.936;2024-01-30T11:55:11;3.25;;;1.50;;
74383;SDS011;62824;52.994;-3.936;2024-01-30T11:57:39;3.45;;;0.98;;
74383;SDS011;62824;52.994;-3.936;2024-01-30T12:00:17;8.95;;;3.92;;
74383;SDS011;62824;52.994;-3.936;2024-01-30T12:02:48;4.07;;;1.30;;
74383;SDS011;62824;52.994;-3.936;2024-01-30T12:05:39;4.00;;;1.10;;
74383;SDS011;62824;52.994;-3.936;2024-01-30T12:08:13;3.73;;;1.10;;
74383;SDS011;62824;52.994;-3.936;2024-01-30T12:10:41;3.10;;;0.90;;
74383;SDS011;62824;52.994;-3.936;2024-01-30T12:13:11;4.43;;;0.95;;
74383;SDS011;62824;52.994;-3.936;2024-01-30T12:15:49;5.05;;;1.27;;
74383;SDS011;62824;52.994;-3.936;2024-01-30T12:18:18;2.78;;;1.30;;
74383;SDS011;62824;52.994;-3.936;2024-01-30T12:44:53;4.20;;;0.95;;
74383;SDS011;62824;52.994;-3.936;2024-01-30T12:51:22;4.32;;;0.90;;
74383;SDS011;62824;52.994;-3.936;2024-01-30T12:53:52;2.25;;;0.77;;
74383;SDS011;62824;52.994;-3.936;2024-01-30T12:56:23;4.75;;;1.77;;
74383;SDS011;62824;52.994;-3.936;2024-01-30T12:59:14;3.90;;;0.82;;
74383;SDS011;62824;52.994;-3.936;2024-01-30T13:01:40;4.38;;;1.15;;
74383;SDS011;62824;52.994;-3.936;2024-01-30T13:04:27;1.48;;;0.90;;
74383;SDS011;62824;52.994;-3.936;2024-01-30T13:06:59;3.17;;;1.00;;
74383;SDS011;62824;52.994;-3.936;2024-01-30T13:09:25;4.65;;;1.38;;
74383;SDS011;62824;52.994;-3.936;2024-01-30T13:11:58;1.83;;;0.80;;
74383;SDS011;62824;52.994;-3.936;2024-01-30T13:17:00;4.22;;;1.10;;
74383;SDS011;62824;52.994;-3.936;2024-01-30T13:19:30;5.78;;;2.13;;
74383;SDS011;62824;52.994;-3.936;2024-01-30T13:21:57;3.75;;;1.00;;
74383;SDS011;62824;52.994;-3.936;2024-01-30T13:24:23;3.95;;;1.08;;
74383;SDS011;62824;52.994;-3.936;2024-01-30T13:26:52;4.13;;;1.00;;
74383;SDS011;62824;52.994;-3.936;2024-01-30T13:29:21;6.25;;;1.45;;
74383;SDS011;62824;52.994;-3.936;2024-01-30T13:31:47;3.28;;;0.90;;
74383;SDS011;62824;52.994;-3.936;2024-01-30T13:34:15;3.65;;;0.93;;
74383;SDS011;62824;52.994;-3.936;2024-01-30T13:36:47;3.30;;;1.10;;
74383;SDS011;62824;52.994;-3.936;2024-01-30T13:39:14;1.77;;;0.75;;
74383;SDS011;62824;52.994;-3.936;2024-01-30T13:41:45;3.00;;;0.90;;
74383;SDS011;62824;52.994;-3.936;2024-01-30T13:44:41;3.33;;;0.88;;
74383;SDS011;62824;52.994;-3.936;2024-01-30T13:47:20;2.92;;;1.20;;
74383;SDS011;62824;52.994;-3.936;2024-01-30T13:50:20;2.33;;;0.88;;
74383;SDS011;62824;52.994;-3.936;2024-01-30T13:53:11;2.88;;;1.27;;
74383;SDS011;62824;52.994;-3.936;2024-01-30T13:55:49;4.25;;;1.02;;
74383;SDS011;62824;52.994;-3.936;2024-01-30T13:58:53;3.57;;;1.07;;
74383;SDS011;62824;52.994;-3.936;2024-01-30T14:01:33;4.40;;;1.27;;
74383;SDS011;62824;52.994;-3.936;2024-01-30T14:07:36;2.03;;;0.80;;
74383;SDS011;62824;52.994;-3.936;2024-01-30T14:10:38;3.42;;;0.80;;
74383;SDS011;62824;52.994;-3.936;2024-01-30T14:13:10;4.50;;;1.20;;
74383;SDS011;62824;52.994;-3.936;2024-01-30T14:15:42;3.95;;;1.00;;
74383;SDS011;62824;52.994;-3.936;2024-01-30T14:18:15;3.80;;;1.40;;
74383;SDS011;62824;52.994;-3.936;2024-01-30T14:20:41;7.72;;;1.20;;
74383;SDS011;62824;52.994;-3.936;2024-01-30T14:23:11;3.90;;;1.08;;
74383;SDS011;62824;52.994;-3.936;2024-01-30T14:25:39;1.95;;;0.90;;
74383;SDS011;62824;52.994;-3.936;2024-01-30T14:28:21;3.78;;;1.10;;
74383;SDS011;62824;52.994;-3.936;2024-01-30T14:31:02;4.15;;;1.10;;
74383;SDS011;62824;52.994;-3.936;2024-01-30T14:33:30;2.03;;;0.98;;
74383;SDS011;62824;52.994;-3.936;2024-01-30T14:36:00;5.60;;;1.23;;
74383;SDS011;62824;52.994;-3.936;2024-01-30T14:38:37;2.33;;;0.98;;
74383;SDS011;62824;52.994;-3.936;2024-01-30T14:47:00;2.35;;;0.80;;
74383;SDS011;62824;52.994;-3.936;2024-01-30T14:49:34;2.45;;;0.80;;
74383;SDS011;62824;52.994;-3.936;2024-01-30T14:52:29;3.95;;;0.95;;
74383;SDS011;62824;52.994;-3.936;2024-01-30T15:01:26;3.17;;;0.90;;
74383;SDS011;62824;52.994;-3.936;2024-01-30T15:04:10;3.35;;;1.95;;
74383;SDS011;62824;52.994;-3.936;2024-01-30T15:06:42;4.28;;;1.17;;
74383;SDS011;62824;52.994;-3.936;2024-01-30T15:09:18;7.00;;;1.50;;
74383;SDS011;62824;52.994;-3.936;2024-01-30T15:11:50;4.55;;;1.90;;
74383;SDS011;62824;52.994;-3.936;2024-01-30T15:14:16;1.95;;;1.08;;
74383;SDS011;62824;52.994;-3.936;2024-01-30T15:16:50;3.40;;;1.10;;
74383;SDS011;62824;52.994;-3.936;2024-01-30T15:19:17;4.43;;;1.35;;
74383;SDS011;62824;52.994;-3.936;2024-01-30T15:21:53;5.93;;;1.27;;
74383;SDS011;62824;52.994;-3.936;2024-01-30T15:24:22;4.40;;;1.30;;
74383;SDS011;62824;52.994;-3.936;2024-01-30T15:26:58;2.95;;;1.10;;
74383;SDS011;62824;52.994;-3.936;2024-01-30T15:29:24;3.95;;;0.93;;
74383;SDS011;62824;52.994;-3.936;2024-01-30T15:32:01;4.90;;;0.90;;
74383;SDS011;62824;52.994;-3.936;2024-01-30T15:34:31;5.65;;;1.73;;
74383;SDS011;62824;52.994;-3.936;2024-01-30T15:37:00;8.60;;;1.40;;
74383;SDS011;62824;52.994;-3.936;2024-01-30T15:39:31;4.85;;;1.35;;
74383;SDS011;62824;52.994;-3.936;2024-01-30T15:41:58;12.98;;;3.03;;
74383;SDS011;62824;52.994;-3.936;2024-01-30T15:44:25;3.38;;;1.73;;
74383;SDS011;62824;52.994;-3.936;2024-01-30T15:47:04;4.03;;;1.23;;
74383;SDS011;62824;52.994;-3.936;2024-01-30T15:49:39;4.70;;;1.70;;
74383;SDS011;62824;52.994;-3.936;2024-01-30T15:52:11;5.60;;;1.90;;
74383;SDS011;62824;52.994;-3.936;2024-01-30T15:54:41;10.57;;;3.70;;
74383;SDS011;62824;52.994;-3.936;2024-01-30T15:57:07;7.43;;;2.60;;
74383;SDS011;62824;52.994;-3.936;2024-01-30T15:59:36;5.13;;;2.25;;
74383;SDS011;62824;52.994;-3.936;2024-01-30T16:02:05;3.05;;;1.30;;
74383;SDS011;62824;52.994;-3.936;2024-01-30T16:04:30;4.95;;;1.17;;
74383;SDS011;62824;52.994;-3.936;2024-01-30T16:06:56;2.80;;;1.20;;
74383;SDS011;62824;52.994;-3.936;2024-01-30T16:09:23;6.20;;;1.45;;
74383;SDS011;62824;52.994;-3.936;2024-01-30T16:11:50;4.15;;;1.60;;
74383;SDS011;62824;52.994;-3.936;2024-01-30T16:14:17;6.80;;;2.75;;
74383;SDS011;62824;52.994;-3.936;2024-01-30T16:19:38;2.42;;;1.10;;
74383;SDS011;62824;52.994;-3.936;2024-01-30T16:22:10;4.18;;;1.80;;
74383;SDS011;62824;52.994;-3.936;2024-01-30T16:24:36;5.20;;;1.88;;
74383;SDS011;62824;52.994;-3.936;2024-01-30T16:27:05;4.00;;;1.30;;
74383;SDS011;62824;52.994;-3.936;2024-01-30T16:29:38;6.70;;;1.30;;
74383;SDS011;62824;52.994;-3.936;2024-01-30T16:32:11;3.35;;;1.25;;
74383;SDS011;62824;52.994;-3.936;2024-01-30T16:34:37;5.35;;;1.40;;
74383;SDS011;62824;52.994;-3.936;2024-01-30T16:37:03;9.68;;;4.53;;
74383;SDS011;62824;52.994;-3.936;2024-01-30T16:39:29;2.65;;;1.20;;
74383;SDS011;62824;52.994;-3.936;2024-01-30T16:41:55;6.05;;;1.40;;
74383;SDS011;62824;52.994;-3.936;2024-01-30T16:44:21;2.58;;;1.13;;
74383;SDS011;62824;52.994;-3.936;2024-01-30T16:46:47;3.85;;;1.50;;
74383;SDS011;62824;52.994;-3.936;2024-01-30T16:49:17;2.80;;;1.40;;
74383;SDS011;62824;52.994;-3.936;2024-01-30T16:51:47;2.42;;;1.50;;
74383;SDS011;62824;52.994;-3.936;2024-01-30T16:54:16;6.75;;;2.13;;
74383;SDS011;62824;52.994;-3.936;2024-01-30T16:56:45;5.60;;;2.80;;
74383;SDS011;62824;52.994;-3.936;2024-01-30T16:59:14;10.20;;;5.05;;
74383;SDS011;62824;52.994;-3.936;2024-01-30T17:01:40;6.80;;;4.28;;
74383;SDS011;62824;52.994;-3.936;2024-01-30T17:04:18;22.10;;;5.28;;
74383;SDS011;62824;52.994;-3.936;2024-01-30T17:06:49;4.53;;;3.17;;
74383;SDS011;62824;52.994;-3.936;2024-01-30T17:09:17;5.35;;;3.00;;
74383;SDS011;62824;52.994;-3.936;2024-01-30T17:11:49;5.80;;;2.38;;
74383;SDS011;62824;52.994;-3.936;2024-01-30T17:34:53;17.98;;;9.10;;
74383;SDS011;62824;52.994;-3.936;2024-01-30T17:37:20;26.70;;;13.60;;
74383;SDS011;62824;52.994;-3.936;2024-01-30T17:39:46;17.60;;;8.30;;
74383;SDS011;62824;52.994;-3.936;2024-01-30T17:42:13;14.88;;;7.55;;
74383;SDS011;62824;52.994;-3.936;2024-01-30T17:44:43;11.80;;;5.45;;
74383;SDS011;62824;52.994;-3.936;2024-01-30T17:47:21;15.50;;;6.20;;
74383;SDS011;62824;52.994;-3.936;2024-01-30T17:50:39;17.45;;;7.75;;
74383;SDS011;62824;52.994;-3.936;2024-01-30T17:53:07;14.25;;;6.18;;